Time;durP1;ratioP1;P1;durP2;ratioP2;P2;SDS_P1;SDS_P2;PMS_P1;PMS_P2;Temp;Humidity;BMP_temperature;BMP_pressure;BME280_temperature;BME280_humidity;BME280_pressure;Samples;Min_cycle;Max_cycle;Signal;HPM_P1;HPM_P2
2023/04/11 00:00:08;;;;;;;1.17;1.00;;;;;;;;;;4976452;28;20026;-81
2023/04/11 00:02:37;;;;;;;2.28;1.45;;;;;;;;;;4977325;28;20498;-81
2023/04/11 00:05:04;;;;;;;1.25;1.08;;;;;;;;;;4977551;28;20049;-81
2023/04/11 00:07:30;;;;;;;3.95;1.27;;;;;;;;;;4975911;28;20026;-80
2023/04/11 00:09:55;;;;;;;3.65;1.10;;;;;;;;;;4970628;28;20038;-81
2023/04/11 00:12:20;;;;;;;3.85;1.33;;;;;;;;;;4975353;28;20050;-81
2023/04/11 00:14:47;;;;;;;1.30;1.20;;;;;;;;;;4977809;28;20027;-81
2023/04/11 00:17:14;;;;;;;1.67;1.38;;;;;;;;;;4984287;28;20062;-81
2023/04/11 00:19:42;;;;;;;2.50;1.27;;;;;;;;;;4975773;28;20426;-81
2023/04/11 00:22:08;;;;;;;1.30;1.00;;;;;;;;;;4975823;28;20031;-81
2023/04/11 00:24:33;;;;;;;1.58;1.08;;;;;;;;;;4969107;28;20031;-81
2023/04/11 00:27:00;;;;;;;2.22;1.02;;;;;;;;;;4976915;28;20050;-81
2023/04/11 00:29:25;;;;;;;2.08;1.40;;;;;;;;;;4971648;28;20594;-80
2023/04/11 00:31:51;;;;;;;1.10;1.02;;;;;;;;;;4977547;28;20038;-81
2023/04/11 00:34:17;;;;;;;1.83;1.05;;;;;;;;;;4977074;28;20027;-81
2023/04/11 00:36:42;;;;;;;4.30;1.23;;;;;;;;;;4975742;28;20015;-81
2023/04/11 00:39:08;;;;;;;1.40;1.23;;;;;;;;;;4968367;28;20035;-81
2023/04/11 00:41:33;;;;;;;2.28;1.40;;;;;;;;;;4974392;28;20030;-80
2023/04/11 00:43:59;;;;;;;1.92;1.55;;;;;;;;;;4977269;28;20031;-81
2023/04/11 00:46:24;;;;;;;4.05;1.25;;;;;;;;;;4976734;28;20113;-81
2023/04/11 00:48:50;;;;;;;2.03;1.00;;;;;;;;;;4986487;28;20038;-81
2023/04/11 00:51:17;;;;;;;3.95;1.58;;;;;;;;;;4976433;28;20015;-81
2023/04/11 00:53:44;;;;;;;1.27;1.10;;;;;;;;;;4962217;28;20644;-81
2023/04/11 00:56:10;;;;;;;2.70;1.38;;;;;;;;;;4979626;28;20042;-81
2023/04/11 00:58:37;;;;;;;2.40;1.13;;;;;;;;;;4976156;28;20054;-81
2023/04/11 01:01:07;;;;;;;2.08;1.30;;;;;;;;;;4975647;28;20039;-81
2023/04/11 01:03:34;;;;;;;3.38;1.30;;;;;;;;;;4986598;28;20018;-81
2023/04/11 01:06:00;;;;;;;2.97;1.13;;;;;;;;;;4964691;28;20578;-80
2023/04/11 01:08:25;;;;;;;2.22;1.15;;;;;;;;;;4980188;28;20066;-81
2023/04/11 01:10:51;;;;;;;2.08;1.15;;;;;;;;;;4980516;28;20026;-80
2023/04/11 01:13:17;;;;;;;1.75;1.15;;;;;;;;;;4980747;28;20548;-81
2023/04/11 01:15:42;;;;;;;4.25;1.20;;;;;;;;;;4988307;28;20437;-81
2023/04/11 01:18:08;;;;;;;2.03;1.10;;;;;;;;;;4977909;28;20026;-81
2023/04/11 01:20:33;;;;;;;4.38;1.27;;;;;;;;;;4980530;28;20057;-81
2023/04/11 01:23:01;;;;;;;1.35;1.00;;;;;;;;;;4988549;28;20109;-81
2023/04/11 01:25:27;;;;;;;6.97;1.30;;;;;;;;;;4992591;28;20029;-81
2023/04/11 01:27:52;;;;;;;4.63;1.45;;;;;;;;;;5001005;28;20030;-81
2023/04/11 01:30:18;;;;;;;1.70;1.23;;;;;;;;;;4986860;28;20031;-81
2023/04/11 01:32:43;;;;;;;1.35;1.17;;;;;;;;;;4978968;28;20030;-84
2023/04/11 01:35:11;;;;;;;1.20;1.10;;;;;;;;;;4972305;28;20018;-85
2023/04/11 01:37:37;;;;;;;1.55;1.17;;;;;;;;;;4990490;28;20530;-85
2023/04/11 01:40:04;;;;;;;1.58;1.20;;;;;;;;;;4975480;28;20031;-85
2023/04/11 01:42:31;;;;;;;2.38;1.30;;;;;;;;;;4976993;28;20154;-85
2023/04/11 01:44:58;;;;;;;2.88;1.42;;;;;;;;;;4979361;28;20058;-85
2023/04/11 01:47:23;;;;;;;1.77;1.25;;;;;;;;;;4997815;28;20026;-84
2023/04/11 01:49:48;;;;;;;1.90;1.30;;;;;;;;;;4982433;28;20027;-84
2023/04/11 01:52:14;;;;;;;1.80;1.25;;;;;;;;;;4977639;28;20027;-84
2023/04/11 01:54:39;;;;;;;3.38;1.10;;;;;;;;;;4983291;28;20026;-83
2023/04/11 01:57:05;;;;;;;1.35;0.90;;;;;;;;;;4996207;28;20022;-83
2023/04/11 01:59:31;;;;;;;2.42;1.30;;;;;;;;;;4980020;28;20022;-83
2023/04/11 02:01:56;;;;;;;2.13;1.40;;;;;;;;;;4976679;28;20026;-83
2023/04/11 02:04:21;;;;;;;1.70;1.30;;;;;;;;;;4977917;28;20034;-85
2023/04/11 02:06:47;;;;;;;3.67;1.35;;;;;;;;;;4981912;28;20034;-83
2023/04/11 02:09:12;;;;;;;5.38;1.58;;;;;;;;;;4987822;28;20038;-86
2023/04/11 02:11:37;;;;;;;2.13;1.42;;;;;;;;;;4976104;28;20035;-85
2023/04/11 02:14:05;;;;;;;2.17;1.25;;;;;;;;;;4981273;28;20490;-84
2023/04/11 02:16:30;;;;;;;1.65;1.00;;;;;;;;;;4990075;28;20030;-84
2023/04/11 02:18:56;;;;;;;1.58;1.05;;;;;;;;;;4997036;28;20104;-83
2023/04/11 02:21:22;;;;;;;0.93;0.90;;;;;;;;;;4983284;28;20499;-83
2023/04/11 02:23:47;;;;;;;1.40;1.02;;;;;;;;;;4981289;28;20022;-84
2023/04/11 02:26:13;;;;;;;0.80;0.80;;;;;;;;;;4985228;28;20031;-83
2023/04/11 02:28:38;;;;;;;2.95;0.73;;;;;;;;;;4980082;28;20069;-83
2023/04/11 02:31:03;;;;;;;1.52;0.82;;;;;;;;;;4976848;28;20030;-83
2023/04/11 02:33:29;;;;;;;1.20;0.82;;;;;;;;;;4978537;28;20044;-84
2023/04/11 02:35:54;;;;;;;1.35;0.95;;;;;;;;;;4973361;28;20023;-84
2023/04/11 02:38:20;;;;;;;0.80;0.80;;;;;;;;;;4971473;28;20038;-84
2023/04/11 02:40:45;;;;;;;1.58;1.10;;;;;;;;;;4973682;28;20121;-85
2023/04/11 02:43:11;;;;;;;0.90;0.90;;;;;;;;;;4976826;28;20517;-85
2023/04/11 02:45:36;;;;;;;0.80;0.80;;;;;;;;;;4970918;28;20022;-84
2023/04/11 02:48:02;;;;;;;7.63;1.20;;;;;;;;;;4986319;28;20026;-85
2023/04/11 02:50:27;;;;;;;0.60;0.60;;;;;;;;;;4976256;28;20037;-84
2023/04/11 02:52:53;;;;;;;3.70;0.90;;;;;;;;;;4992756;28;20085;-83
2023/04/11 02:55:22;;;;;;;0.63;0.63;;;;;;;;;;4977874;28;20078;-85
2023/04/11 02:57:48;;;;;;;1.27;1.10;;;;;;;;;;4976332;28;20082;-83
2023/04/11 03:00:13;;;;;;;0.75;0.73;;;;;;;;;;4974243;28;20034;-84
2023/04/11 03:02:38;;;;;;;1.73;0.95;;;;;;;;;;4972769;28;20039;-85
2023/04/11 03:05:05;;;;;;;1.00;0.90;;;;;;;;;;4976445;28;20177;-83
2023/04/11 03:07:31;;;;;;;0.80;0.80;;;;;;;;;;4975481;28;20046;-84
2023/04/11 03:09:56;;;;;;;2.28;1.02;;;;;;;;;;4968891;28;20070;-86
2023/04/11 03:12:22;;;;;;;1.58;0.77;;;;;;;;;;4976047;28;20081;-84
2023/04/11 03:14:49;;;;;;;0.77;0.70;;;;;;;;;;4972195;28;20023;-86
2023/04/11 03:17:15;;;;;;;2.85;1.10;;;;;;;;;;4979086;28;20038;-85
2023/04/11 03:19:40;;;;;;;2.42;0.60;;;;;;;;;;4974135;28;20046;-85
2023/04/11 03:22:06;;;;;;;1.27;0.95;;;;;;;;;;4982759;28;20054;-85
2023/04/11 03:24:31;;;;;;;0.82;0.73;;;;;;;;;;4976242;28;20094;-86
2023/04/11 03:26:57;;;;;;;0.63;0.63;;;;;;;;;;4975794;28;20081;-83
2023/04/11 03:29:23;;;;;;;1.65;0.55;;;;;;;;;;4980612;28;20066;-84
2023/04/11 03:31:49;;;;;;;2.35;1.13;;;;;;;;;;4976085;28;20027;-85
2023/04/11 03:34:14;;;;;;;0.57;0.57;;;;;;;;;;4974184;28;20030;-84
2023/04/11 03:36:40;;;;;;;1.02;0.73;;;;;;;;;;4970663;28;20026;-84
2023/04/11 03:39:05;;;;;;;0.65;0.60;;;;;;;;;;4976807;28;20027;-82
2023/04/11 03:41:30;;;;;;;1.55;0.75;;;;;;;;;;4975742;28;20042;-84
2023/04/11 03:43:56;;;;;;;1.15;0.63;;;;;;;;;;4974678;28;20499;-84
2023/04/11 03:46:21;;;;;;;2.40;0.90;;;;;;;;;;4975641;28;20093;-84
2023/04/11 03:48:46;;;;;;;5.03;1.23;;;;;;;;;;4979087;28;20125;-83
2023/04/11 03:51:12;;;;;;;3.97;0.90;;;;;;;;;;4974189;28;20067;-84
2023/04/11 03:53:37;;;;;;;2.25;0.85;;;;;;;;;;4994968;28;20035;-82
2023/04/11 03:56:03;;;;;;;3.00;0.77;;;;;;;;;;4973826;28;20062;-83
2023/04/11 03:58:29;;;;;;;1.15;0.65;;;;;;;;;;4976357;28;20035;-83
2023/04/11 04:00:54;;;;;;;3.00;0.98;;;;;;;;;;4982390;28;20026;-82
2023/04/11 04:03:20;;;;;;;3.95;0.95;;;;;;;;;;4974168;28;20033;-83
2023/04/11 04:05:45;;;;;;;2.75;1.05;;;;;;;;;;4978865;28;20019;-83
2023/04/11 04:08:10;;;;;;;1.38;0.68;;;;;;;;;;4992296;28;20066;-83
2023/04/11 04:10:36;;;;;;;2.05;0.95;;;;;;;;;;4975859;28;20031;-83
2023/04/11 04:13:01;;;;;;;1.83;1.20;;;;;;;;;;4980942;28;20023;-83
2023/04/11 04:15:26;;;;;;;0.70;0.70;;;;;;;;;;4969319;28;20027;-82
2023/04/11 04:17:52;;;;;;;1.70;0.60;;;;;;;;;;4992411;28;20050;-82
2023/04/11 04:20:17;;;;;;;4.55;1.02;;;;;;;;;;4984077;28;20050;-83
2023/04/11 04:22:46;;;;;;;4.18;0.80;;;;;;;;;;4981309;28;20098;-84
2023/04/11 04:25:14;;;;;;;0.63;0.63;;;;;;;;;;4983626;28;20022;-84
2023/04/11 04:27:43;;;;;;;2.50;0.88;;;;;;;;;;4984727;28;20109;-83
2023/04/11 04:30:10;;;;;;;1.98;1.08;;;;;;;;;;4970455;28;20019;-83
2023/04/11 04:32:35;;;;;;;1.60;0.98;;;;;;;;;;4984282;28;20050;-83
2023/04/11 04:35:01;;;;;;;2.53;0.85;;;;;;;;;;4996973;28;20402;-83
2023/04/11 04:37:26;;;;;;;1.77;0.57;;;;;;;;;;4986598;28;20014;-84
2023/04/11 04:39:55;;;;;;;0.68;0.63;;;;;;;;;;5000733;28;20042;-83
2023/04/11 04:42:26;;;;;;;0.55;0.50;;;;;;;;;;4984851;28;20476;-82
2023/04/11 04:44:52;;;;;;;0.80;0.80;;;;;;;;;;4982580;28;20026;-82
2023/04/11 04:47:21;;;;;;;1.60;0.70;;;;;;;;;;5000174;28;20003;-82
2023/04/11 04:49:46;;;;;;;1.70;0.93;;;;;;;;;;4990534;28;20012;-81
2023/04/11 04:52:13;;;;;;;0.30;0.30;;;;;;;;;;4999127;28;20195;-81
2023/04/11 04:54:41;;;;;;;1.30;0.88;;;;;;;;;;4993961;28;20042;-84
2023/04/11 04:57:07;;;;;;;2.28;0.95;;;;;;;;;;4992222;28;20058;-84
2023/04/11 04:59:32;;;;;;;3.42;1.10;;;;;;;;;;4980006;28;20038;-83
2023/04/11 05:01:58;;;;;;;1.58;0.55;;;;;;;;;;4978586;28;20034;-84
2023/04/11 05:04:23;;;;;;;3.08;0.80;;;;;;;;;;4971792;28;20035;-83
2023/04/11 05:06:49;;;;;;;4.20;1.23;;;;;;;;;;4977653;28;20033;-84
2023/04/11 05:09:15;;;;;;;0.40;0.40;;;;;;;;;;4978032;28;20090;-84
2023/04/11 05:11:40;;;;;;;0.63;0.63;;;;;;;;;;4977392;28;20034;-84
2023/04/11 05:14:06;;;;;;;0.85;0.77;;;;;;;;;;4979105;28;20015;-83
2023/04/11 05:16:31;;;;;;;0.57;0.57;;;;;;;;;;4990297;28;20053;-83
2023/04/11 05:18:56;;;;;;;0.50;0.50;;;;;;;;;;4979656;28;20030;-84
2023/04/11 05:21:22;;;;;;;1.00;0.88;;;;;;;;;;4976644;28;20438;-83
2023/04/11 05:23:47;;;;;;;2.38;0.75;;;;;;;;;;4979092;28;20453;-84
2023/04/11 05:26:13;;;;;;;0.50;0.50;;;;;;;;;;4979604;28;20057;-83
2023/04/11 05:28:38;;;;;;;0.60;0.60;;;;;;;;;;4977215;28;20114;-83
2023/04/11 05:31:04;;;;;;;1.45;0.57;;;;;;;;;;4979158;28;20045;-83
2023/04/11 05:33:30;;;;;;;0.52;0.50;;;;;;;;;;4978988;28;20042;-83
2023/04/11 05:35:55;;;;;;;1.10;0.60;;;;;;;;;;4977765;28;20046;-83
2023/04/11 05:38:20;;;;;;;1.50;0.85;;;;;;;;;;4980308;28;20031;-86
2023/04/11 05:40:46;;;;;;;3.83;0.50;;;;;;;;;;4973736;28;20102;-86
2023/04/11 05:43:13;;;;;;;2.00;0.65;;;;;;;;;;4978486;28;20037;-85
2023/04/11 05:45:46;;;;;;;1.00;0.68;;;;;;;;;;4987701;28;20027;-85
2023/04/11 05:48:13;;;;;;;0.47;0.45;;;;;;;;;;4989677;28;20023;-84
2023/04/11 05:50:39;;;;;;;1.25;0.70;;;;;;;;;;4994180;28;20046;-86
2023/04/11 05:53:05;;;;;;;0.60;0.60;;;;;;;;;;4997498;28;20026;-82
2023/04/11 05:55:30;;;;;;;1.85;0.85;;;;;;;;;;4988519;28;20038;-84
2023/04/11 05:57:55;;;;;;;0.30;0.30;;;;;;;;;;4989785;28;20733;-83
2023/04/11 06:00:23;;;;;;;0.85;0.60;;;;;;;;;;4979987;28;20034;-84
2023/04/11 06:02:49;;;;;;;4.63;0.75;;;;;;;;;;4980606;28;20031;-84
2023/04/11 06:05:16;;;;;;;4.65;0.68;;;;;;;;;;4982657;28;20414;-85
2023/04/11 06:07:42;;;;;;;1.08;0.73;;;;;;;;;;4978261;28;20031;-84
2023/04/11 06:10:08;;;;;;;1.02;0.90;;;;;;;;;;4979741;28;20041;-83
2023/04/11 06:12:34;;;;;;;1.27;0.60;;;;;;;;;;4976892;28;20035;-84
2023/04/11 06:14:59;;;;;;;2.70;0.93;;;;;;;;;;4979123;28;20076;-84
2023/04/11 06:17:25;;;;;;;1.15;0.70;;;;;;;;;;4981203;28;20038;-87
2023/04/11 06:19:50;;;;;;;4.30;0.98;;;;;;;;;;4978297;28;20019;-86
2023/04/11 06:22:16;;;;;;;1.20;0.45;;;;;;;;;;4976818;28;20018;-85
2023/04/11 06:24:41;;;;;;;2.15;0.90;;;;;;;;;;4977991;28;20025;-87
2023/04/11 06:27:10;;;;;;;1.63;0.50;;;;;;;;;;4977130;28;20073;-85
2023/04/11 06:29:36;;;;;;;4.75;0.90;;;;;;;;;;4977772;28;20030;-86
2023/04/11 06:32:02;;;;;;;0.47;0.47;;;;;;;;;;4978142;28;20418;-87
2023/04/11 06:34:27;;;;;;;4.72;1.25;;;;;;;;;;4977108;28;20097;-87
2023/04/11 06:36:52;;;;;;;2.05;0.50;;;;;;;;;;4977543;28;20023;-86
2023/04/11 06:39:19;;;;;;;0.98;0.75;;;;;;;;;;4974261;28;20117;-86
2023/04/11 06:41:47;;;;;;;4.50;0.82;;;;;;;;;;4977040;28;20026;-87
2023/04/11 06:44:13;;;;;;;2.63;0.80;;;;;;;;;;4976511;28;20089;-87
2023/04/11 06:46:38;;;;;;;1.23;0.93;;;;;;;;;;4990586;28;20049;-86
2023/04/11 06:49:07;;;;;;;4.03;0.95;;;;;;;;;;4978226;28;20109;-86
2023/04/11 06:51:36;;;;;;;1.90;0.38;;;;;;;;;;4976791;28;20023;-86
2023/04/11 06:54:02;;;;;;;1.02;0.70;;;;;;;;;;4977249;28;20041;-86
2023/04/11 06:56:28;;;;;;;0.80;0.70;;;;;;;;;;4978364;28;20015;-86
2023/04/11 06:58:54;;;;;;;6.22;1.23;;;;;;;;;;4975807;28;20054;-88
2023/04/11 07:01:20;;;;;;;0.73;0.50;;;;;;;;;;4978955;28;20031;-87
2023/04/11 07:03:46;;;;;;;1.65;0.45;;;;;;;;;;4976620;28;20027;-86
2023/04/11 07:06:12;;;;;;;3.15;0.60;;;;;;;;;;4976635;28;20038;-87
2023/04/11 07:08:37;;;;;;;1.88;0.50;;;;;;;;;;4970072;28;20623;-86
2023/04/11 07:11:03;;;;;;;2.35;0.90;;;;;;;;;;4965728;28;20196;-86
2023/04/11 07:13:28;;;;;;;3.60;0.80;;;;;;;;;;4966612;28;20022;-86
2023/04/11 07:15:54;;;;;;;5.65;1.08;;;;;;;;;;4986759;28;20026;-86
2023/04/11 07:18:20;;;;;;;4.22;0.70;;;;;;;;;;4996467;28;20038;-86
2023/04/11 07:20:45;;;;;;;5.53;0.93;;;;;;;;;;4976764;28;20060;-86
2023/04/11 07:23:10;;;;;;;1.17;0.50;;;;;;;;;;4977229;28;20023;-86
2023/04/11 07:25:38;;;;;;;6.07;1.35;;;;;;;;;;4976805;28;20025;-87
2023/04/11 07:28:06;;;;;;;3.97;0.85;;;;;;;;;;4977631;28;20427;-87
2023/04/11 07:30:31;;;;;;;3.78;0.73;;;;;;;;;;4977956;28;20035;-86
2023/04/11 07:32:57;;;;;;;5.32;1.05;;;;;;;;;;4976819;28;20450;-86
2023/04/11 07:35:22;;;;;;;8.07;1.05;;;;;;;;;;4979152;28;20497;-86
2023/04/11 07:37:48;;;;;;;0.50;0.50;;;;;;;;;;4994356;28;20041;-86
2023/04/11 07:40:17;;;;;;;5.00;1.23;;;;;;;;;;4986740;28;20034;-86
2023/04/11 07:42:45;;;;;;;3.70;1.10;;;;;;;;;;4982761;28;20081;-87
2023/04/11 07:45:12;;;;;;;4.57;1.20;;;;;;;;;;4986040;28;20066;-86
2023/04/11 07:47:39;;;;;;;1.17;0.80;;;;;;;;;;4984016;28;20058;-86
2023/04/11 07:50:09;;;;;;;5.03;1.20;;;;;;;;;;4981088;28;20027;-85
2023/04/11 07:52:35;;;;;;;4.55;1.17;;;;;;;;;;4964053;28;20089;-87
2023/04/11 07:55:03;;;;;;;8.70;1.40;;;;;;;;;;4980981;28;20019;-87
2023/04/11 07:57:30;;;;;;;3.63;0.90;;;;;;;;;;4980101;28;20498;-85
2023/04/11 07:59:58;;;;;;;4.43;1.02;;;;;;;;;;4985254;28;20501;-87
2023/04/11 08:02:26;;;;;;;3.60;0.98;;;;;;;;;;4984980;28;20030;-86
2023/04/11 08:04:52;;;;;;;1.17;0.80;;;;;;;;;;4982264;28;20318;-87
2023/04/11 08:07:17;;;;;;;3.38;0.90;;;;;;;;;;4981286;28;20479;-86
2023/04/11 08:09:43;;;;;;;2.08;1.00;;;;;;;;;;4973074;28;20030;-85
2023/04/11 08:12:09;;;;;;;2.60;0.70;;;;;;;;;;4980840;28;20054;-85
2023/04/11 08:14:38;;;;;;;2.20;0.98;;;;;;;;;;4981235;28;20081;-85
2023/04/11 08:17:06;;;;;;;3.47;0.82;;;;;;;;;;4996706;28;20039;-86
2023/04/11 08:19:38;;;;;;;1.60;0.63;;;;;;;;;;4963376;28;20066;-85
2023/04/11 08:22:15;;;;;;;2.28;0.60;;;;;;;;;;4981322;28;20041;-85
2023/04/11 08:24:40;;;;;;;3.20;1.00;;;;;;;;;;4980653;28;20058;-85
2023/04/11 08:27:05;;;;;;;10.07;1.38;;;;;;;;;;4980958;28;20525;-85
2023/04/11 08:30:39;;;;;;;3.13;1.48;;;;;;;;;;4981780;28;20043;-87
2023/04/11 08:33:26;;;;;;;4.32;1.58;;;;;;;;;;4962110;29;20071;-86
2023/04/11 08:35:53;;;;;;;3.80;0.90;;;;;;;;;;4961876;29;20082;-87
2023/04/11 08:38:19;;;;;;;4.82;0.85;;;;;;;;;;4949847;28;20066;-87
2023/04/11 08:40:52;;;;;;;1.13;0.73;;;;;;;;;;4996844;28;20445;-87
2023/04/11 08:43:51;;;;;;;3.80;1.30;;;;;;;;;;4981239;28;20117;-86
2023/04/11 08:46:44;;;;;;;6.30;1.10;;;;;;;;;;4985872;28;20041;-86
2023/04/11 08:50:07;;;;;;;3.25;1.10;;;;;;;;;;4964074;28;20042;-85
2023/04/11 08:52:34;;;;;;;2.58;0.82;;;;;;;;;;4980153;28;20038;-87
2023/04/11 08:55:00;;;;;;;5.82;0.73;;;;;;;;;;4962183;28;20019;-85
2023/04/11 08:57:30;;;;;;;2.47;0.77;;;;;;;;;;4977983;28;20031;-87
2023/04/11 08:59:59;;;;;;;3.13;0.95;;;;;;;;;;4982439;28;20038;-84
2023/04/11 09:02:24;;;;;;;2.03;1.27;;;;;;;;;;4982810;28;20089;-84
2023/04/11 09:04:50;;;;;;;3.53;1.13;;;;;;;;;;4982069;28;20030;-83
2023/04/11 09:07:15;;;;;;;1.33;0.88;;;;;;;;;;4982613;28;20035;-83
2023/04/11 09:09:42;;;;;;;1.45;0.60;;;;;;;;;;4979964;28;20086;-84
2023/04/11 09:12:08;;;;;;;7.03;1.02;;;;;;;;;;4982823;28;20086;-83
2023/04/11 09:14:33;;;;;;;4.80;1.13;;;;;;;;;;4981813;28;20070;-83
2023/04/11 09:16:59;;;;;;;5.70;0.90;;;;;;;;;;4981319;28;20023;-84
2023/04/11 09:19:29;;;;;;;5.32;1.02;;;;;;;;;;4971347;28;20038;-86
2023/04/11 09:21:59;;;;;;;3.38;1.42;;;;;;;;;;4959869;28;20031;-83
2023/04/11 09:24:30;;;;;;;9.00;1.92;;;;;;;;;;4963983;28;20023;-81
2023/04/11 09:27:12;;;;;;;3.38;1.13;;;;;;;;;;4974248;28;20027;-83
2023/04/11 09:29:40;;;;;;;5.20;0.90;;;;;;;;;;4985330;28;20031;-82
2023/04/11 09:32:05;;;;;;;1.02;0.90;;;;;;;;;;4982662;28;20038;-82
2023/04/11 09:34:33;;;;;;;5.10;0.85;;;;;;;;;;4982746;28;20097;-82
2023/04/11 09:36:58;;;;;;;0.77;0.70;;;;;;;;;;4982584;28;20053;-81
2023/04/11 09:39:27;;;;;;;2.85;0.88;;;;;;;;;;4978243;28;20035;-83
2023/04/11 09:41:52;;;;;;;2.60;0.77;;;;;;;;;;4979315;28;20093;-81
2023/04/11 09:44:18;;;;;;;0.70;0.70;;;;;;;;;;4981882;28;20050;-83
2023/04/11 09:46:57;;;;;;;2.20;1.10;;;;;;;;;;4981651;28;20026;-84
2023/04/11 09:49:23;;;;;;;4.13;0.82;;;;;;;;;;4976060;28;20098;-82
2023/04/11 09:51:50;;;;;;;2.70;1.42;;;;;;;;;;4977517;28;20090;-83
2023/04/11 09:54:16;;;;;;;2.67;0.98;;;;;;;;;;4979794;28;20027;-83
2023/04/11 09:56:41;;;;;;;3.53;1.13;;;;;;;;;;4978883;28;20046;-82
2023/04/11 09:59:07;;;;;;;5.85;1.10;;;;;;;;;;4988624;28;20051;-81
2023/04/11 10:01:32;;;;;;;2.30;0.90;;;;;;;;;;4984513;28;20051;-83
2023/04/11 10:03:59;;;;;;;2.35;0.93;;;;;;;;;;4979098;28;20019;-82
2023/04/11 10:06:44;;;;;;;1.08;0.70;;;;;;;;;;4979820;28;20390;-83
2023/04/11 10:09:13;;;;;;;1.83;0.80;;;;;;;;;;4983163;28;20018;-88
2023/04/11 10:11:43;;;;;;;7.15;1.30;;;;;;;;;;4970886;28;20014;-86
2023/04/11 10:14:29;;;;;;;1.92;0.85;;;;;;;;;;4992171;28;20027;-87
2023/04/11 10:17:10;;;;;;;0.20;0.20;;;;;;;;;;4990036;28;20039;-82
2023/04/11 10:19:35;;;;;;;2.53;1.05;;;;;;;;;;4980450;28;20031;-82
2023/04/11 10:22:00;;;;;;;3.50;0.68;;;;;;;;;;4977135;28;20094;-83
2023/04/11 10:24:26;;;;;;;7.18;0.95;;;;;;;;;;4978411;28;20037;-82
2023/04/11 10:26:52;;;;;;;3.28;0.90;;;;;;;;;;4973730;28;20019;-84
2023/04/11 10:29:27;;;;;;;3.33;0.88;;;;;;;;;;4971735;28;20026;-79
2023/04/11 10:32:12;;;;;;;4.38;1.33;;;;;;;;;;4976147;28;20051;-82
2023/04/11 10:34:39;;;;;;;2.08;1.42;;;;;;;;;;4978097;28;20022;-82
2023/04/11 10:37:09;;;;;;;1.30;1.10;;;;;;;;;;4978013;28;20757;-81
2023/04/11 10:39:50;;;;;;;5.22;1.00;;;;;;;;;;4987779;28;20022;-81
2023/04/11 10:42:37;;;;;;;4.85;1.10;;;;;;;;;;4988365;28;20038;-82
2023/04/11 10:45:27;;;;;;;2.60;1.50;;;;;;;;;;4992183;28;20025;-83
2023/04/11 10:47:55;;;;;;;2.17;0.95;;;;;;;;;;4978036;28;20063;-83
2023/04/11 10:50:24;;;;;;;6.68;1.25;;;;;;;;;;4977652;28;20046;-83
2023/04/11 10:52:57;;;;;;;1.48;0.80;;;;;;;;;;4975615;29;20118;-83
2023/04/11 10:55:23;;;;;;;4.30;1.35;;;;;;;;;;4963301;29;20039;-82
2023/04/11 10:58:05;;;;;;;0.43;0.43;;;;;;;;;;4976273;28;20031;-83
2023/04/11 11:00:50;;;;;;;1.63;0.90;;;;;;;;;;4983973;28;20128;-82
2023/04/11 11:03:36;;;;;;;3.55;0.82;;;;;;;;;;4983756;28;20030;-82
2023/04/11 11:06:05;;;;;;;4.95;1.00;;;;;;;;;;4985652;28;20158;-82
2023/04/11 11:08:32;;;;;;;1.08;0.88;;;;;;;;;;4983972;28;20026;-82
2023/04/11 11:11:03;;;;;;;0.73;0.70;;;;;;;;;;4969256;28;20033;-82
2023/04/11 11:13:51;;;;;;;5.00;0.90;;;;;;;;;;4968000;28;20046;-82
2023/04/11 11:16:24;;;;;;;4.35;1.60;;;;;;;;;;4977904;28;20574;-82
2023/04/11 11:18:51;;;;;;;3.42;0.93;;;;;;;;;;4978837;28;20026;-82
2023/04/11 11:21:19;;;;;;;3.70;1.15;;;;;;;;;;4978692;28;20609;-81
2023/04/11 11:23:57;;;;;;;4.25;1.10;;;;;;;;;;4977600;28;20035;-82
2023/04/11 11:26:43;;;;;;;3.58;1.10;;;;;;;;;;4977639;28;20483;-82
2023/04/11 11:29:09;;;;;;;4.60;0.93;;;;;;;;;;4980454;28;20522;-83
2023/04/11 11:31:44;;;;;;;0.55;0.55;;;;;;;;;;4982057;28;20034;-84
2023/04/11 11:34:10;;;;;;;1.55;1.10;;;;;;;;;;4981376;28;20034;-83
2023/04/11 11:36:42;;;;;;;2.05;1.02;;;;;;;;;;4976565;28;20057;-83
2023/04/11 11:39:09;;;;;;;;;;;;;;;;;;4969345;28;20046;-79
2023/04/11 11:41:35;;;;;;;3.60;1.27;;;;;;;;;;4977043;28;19911;-82
2023/04/11 11:44:02;;;;;;;2.45;0.88;;;;;;;;;;4976823;28;20034;-81
2023/04/11 11:46:32;;;;;;;2.95;0.95;;;;;;;;;;4976531;28;20026;-83
2023/04/11 11:49:06;;;;;;;4.45;0.98;;;;;;;;;;4978001;28;20030;-80
2023/04/11 11:51:42;;;;;;;3.80;0.80;;;;;;;;;;4978475;28;20034;-81
2023/04/11 11:54:09;;;;;;;0.95;0.80;;;;;;;;;;4978678;28;20030;-81
2023/04/11 11:56:39;;;;;;;2.25;1.42;;;;;;;;;;4976938;28;20034;-81
2023/04/11 11:59:05;;;;;;;1.25;1.08;;;;;;;;;;4977018;28;20034;-82
2023/04/11 12:01:32;;;;;;;1.13;0.63;;;;;;;;;;4976693;28;20057;-82
2023/04/11 12:03:57;;;;;;;1.85;0.75;;;;;;;;;;4976841;28;20054;-83
2023/04/11 12:06:27;;;;;;;0.95;0.85;;;;;;;;;;4977860;28;20025;-83
2023/04/11 12:09:00;;;;;;;1.85;0.90;;;;;;;;;;4978260;28;20054;-83
2023/04/11 12:11:25;;;;;;;1.25;0.93;;;;;;;;;;4964281;28;20035;-84
2023/04/11 12:13:51;;;;;;;3.15;1.55;;;;;;;;;;4958806;28;20029;-83
2023/04/11 12:16:20;;;;;;;2.40;1.15;;;;;;;;;;4960601;28;20062;-82
2023/04/11 12:18:46;;;;;;;3.97;1.00;;;;;;;;;;4990860;28;20026;-82
2023/04/11 12:21:11;;;;;;;2.70;0.90;;;;;;;;;;4977844;28;20043;-82
2023/04/11 12:23:36;;;;;;;2.67;0.93;;;;;;;;;;4976934;28;20023;-82
2023/04/11 12:26:02;;;;;;;3.50;1.55;;;;;;;;;;4977162;28;20090;-83
2023/04/11 12:28:27;;;;;;;1.00;0.88;;;;;;;;;;4978374;28;20026;-82
2023/04/11 12:30:53;;;;;;;3.85;1.27;;;;;;;;;;4976870;28;20046;-82
2023/04/11 12:33:18;;;;;;;0.88;0.65;;;;;;;;;;4976650;28;20022;-81
2023/04/11 12:35:44;;;;;;;3.05;1.08;;;;;;;;;;4976877;28;20035;-82
2023/04/11 12:38:10;;;;;;;1.58;0.90;;;;;;;;;;4975327;28;20081;-82
2023/04/11 12:40:36;;;;;;;2.33;0.90;;;;;;;;;;4973377;28;20032;-82
2023/04/11 12:43:01;;;;;;;5.68;0.75;;;;;;;;;;4957555;29;20019;-82
2023/04/11 12:45:27;;;;;;;4.10;0.88;;;;;;;;;;4959224;28;20072;-82
2023/04/11 12:47:52;;;;;;;1.00;0.70;;;;;;;;;;4945487;29;20110;-81
2023/04/11 12:50:18;;;;;;;1.00;0.90;;;;;;;;;;4966749;28;20334;-81
2023/04/11 12:52:43;;;;;;;4.20;1.02;;;;;;;;;;4982317;28;20022;-84
2023/04/11 12:55:09;;;;;;;1.92;1.20;;;;;;;;;;4981506;28;20085;-83
2023/04/11 13:00:32;;;;;;;1.67;0.98;;;;;;;;;;5020040;28;20054;-83
2023/04/11 13:03:14;;;;;;;3.05;0.90;;;;;;;;;;5021866;28;20133;-83
2023/04/11 13:05:50;;;;;;;4.47;0.80;;;;;;;;;;5021580;28;20019;-83
2023/04/11 13:08:25;;;;;;;0.88;0.70;;;;;;;;;;5020401;28;20044;-83
2023/04/11 13:10:51;;;;;;;1.83;0.82;;;;;;;;;;5022747;28;20018;-82
2023/04/11 13:13:36;;;;;;;6.50;1.33;;;;;;;;;;5022391;28;20124;-82
2023/04/11 13:16:06;;;;;;;2.17;0.90;;;;;;;;;;5020799;28;20057;-83
2023/04/11 13:18:33;;;;;;;1.63;0.80;;;;;;;;;;5019353;28;20082;-82
2023/04/11 13:20:59;;;;;;;4.63;1.17;;;;;;;;;;5022712;28;20085;-82
2023/04/11 13:23:24;;;;;;;6.00;0.82;;;;;;;;;;5022439;28;20049;-82
2023/04/11 13:25:52;;;;;;;1.85;1.08;;;;;;;;;;5021874;28;20156;-83
2023/04/11 13:28:21;;;;;;;0.88;0.80;;;;;;;;;;5020077;28;20025;-83
2023/04/11 13:30:49;;;;;;;5.00;1.25;;;;;;;;;;5021013;28;20639;-82
2023/04/11 13:33:49;;;;;;;0.40;0.40;;;;;;;;;;5020122;28;20521;-82
2023/04/11 13:36:18;;;;;;;3.63;0.70;;;;;;;;;;5020803;28;20085;-81
2023/04/11 13:38:56;;;;;;;2.40;0.90;;;;;;;;;;5019977;28;20026;-82
2023/04/11 13:41:31;;;;;;;4.80;1.52;;;;;;;;;;5019727;28;20040;-81
2023/04/11 13:43:56;;;;;;;1.08;0.73;;;;;;;;;;5021105;28;20050;-83
2023/04/11 13:46:25;;;;;;;2.03;0.82;;;;;;;;;;5018949;28;20027;-82
2023/04/11 13:49:05;;;;;;;7.85;0.90;;;;;;;;;;5018884;28;20057;-82
2023/04/11 13:51:43;;;;;;;5.28;1.15;;;;;;;;;;5002476;28;20125;-82
2023/04/11 13:54:30;;;;;;;2.70;0.90;;;;;;;;;;5004539;28;20396;-81
2023/04/11 13:57:08;;;;;;;3.03;1.00;;;;;;;;;;5019861;28;20048;-82
2023/04/11 13:59:56;;;;;;;2.35;0.60;;;;;;;;;;5018576;28;20124;-82
2023/04/11 14:02:45;;;;;;;5.80;1.42;;;;;;;;;;5030513;28;20025;-82
2023/04/11 14:05:13;;;;;;;1.90;1.10;;;;;;;;;;5025213;28;20056;-82
2023/04/11 14:07:56;;;;;;;1.92;0.93;;;;;;;;;;5023438;28;20054;-82
2023/04/11 14:10:21;;;;;;;2.38;0.80;;;;;;;;;;5029632;28;20017;-82
2023/04/11 14:12:47;;;;;;;0.63;0.50;;;;;;;;;;5030432;28;20034;-81
2023/04/11 14:15:12;;;;;;;2.10;1.08;;;;;;;;;;5029249;28;20030;-81
2023/04/11 14:18:08;;;;;;;2.90;1.25;;;;;;;;;;5028714;28;20068;-82
2023/04/11 14:20:33;;;;;;;1.02;0.57;;;;;;;;;;5029066;28;20064;-82
2023/04/11 14:23:05;;;;;;;1.38;1.02;;;;;;;;;;5027141;28;20477;-82
2023/04/11 14:25:36;;;;;;;;;;;;;;;;;;5028785;28;20018;-81
2023/04/11 14:28:02;;;;;;;2.15;0.90;;;;;;;;;;5026174;28;19976;-83
2023/04/11 14:30:32;;;;;;;1.70;0.70;;;;;;;;;;5027685;28;20033;-82
2023/04/11 14:32:58;;;;;;;1.90;0.90;;;;;;;;;;5025213;28;20405;-82
2023/04/11 14:35:31;;;;;;;3.45;0.80;;;;;;;;;;5023146;28;20026;-82
2023/04/11 14:40:48;;;;;;;2.35;1.05;;;;;;;;;;5021481;28;20061;-82
2023/04/11 14:43:20;;;;;;;1.30;0.65;;;;;;;;;;5019583;28;20037;-82
2023/04/11 14:46:27;;;;;;;0.95;0.82;;;;;;;;;;5020072;28;20060;-82
2023/04/11 14:48:52;;;;;;;4.78;0.93;;;;;;;;;;4998917;28;20034;-83
2023/04/11 14:51:22;;;;;;;3.33;0.90;;;;;;;;;;5020059;28;20500;-82
2023/04/11 14:53:53;;;;;;;1.10;0.75;;;;;;;;;;5020344;28;20034;-82
2023/04/11 14:56:20;;;;;;;7.45;0.98;;;;;;;;;;5007317;28;20057;-82